createdAt,value
2023-09-08T00:02:29.577Z,18.58
2023-09-08T00:04:57.069Z,18.34
2023-09-08T00:07:24.181Z,18.32
2023-09-08T00:09:51.450Z,18.35
2023-09-08T00:12:18.758Z,18.31
2023-09-08T00:14:45.781Z,18.38
2023-09-08T00:17:12.953Z,18.33
2023-09-08T00:19:40.201Z,18.46
2023-09-08T00:22:07.530Z,18.60
2023-09-08T00:24:35.167Z,18.60
2023-09-08T00:27:02.458Z,18.57
2023-09-08T00:29:30.000Z,18.80
2023-09-08T00:31:57.237Z,18.82
2023-09-08T00:34:24.783Z,18.81
2023-09-08T00:36:52.354Z,18.64
2023-09-08T00:39:20.672Z,18.66
2023-09-08T00:41:47.633Z,18.61
2023-09-08T00:44:14.957Z,18.53
2023-09-08T00:46:42.032Z,18.24
2023-09-08T00:49:10.223Z,18.16
2023-09-08T00:51:39.039Z,17.87
2023-09-08T00:54:07.670Z,17.93
2023-09-08T00:56:36.443Z,17.94
2023-09-08T00:59:04.043Z,18.02
2023-09-08T01:01:32.129Z,17.93
2023-09-08T01:03:59.638Z,17.78
2023-09-08T01:06:27.540Z,17.75
2023-09-08T01:08:56.258Z,17.65
2023-09-08T01:11:23.768Z,17.49
2023-09-08T01:13:50.704Z,17.44
2023-09-08T01:16:17.814Z,17.36
2023-09-08T01:18:47.457Z,17.32
2023-09-08T01:22:12.946Z,17.36
2023-09-08T01:25:01.572Z,17.37
2023-09-08T01:27:30.801Z,17.09
2023-09-08T01:29:58.537Z,16.85
2023-09-08T01:32:26.054Z,17.03
2023-09-08T01:34:53.571Z,17.14
2023-09-08T01:37:24.518Z,17.21
2023-09-08T01:39:51.629Z,17.23
2023-09-08T01:42:18.634Z,17.07
2023-09-08T01:44:45.556Z,16.97
2023-09-08T01:47:13.605Z,16.90
2023-09-08T01:49:40.721Z,16.79
2023-09-08T01:52:07.732Z,16.68
2023-09-08T01:54:34.796Z,16.66
2023-09-08T01:57:01.763Z,16.50
2023-09-08T01:59:28.758Z,16.39
2023-09-08T02:01:55.727Z,16.51
2023-09-08T02:04:22.995Z,16.58
2023-09-08T02:06:49.953Z,16.50
2023-09-08T02:09:17.269Z,16.57
2023-09-08T02:11:44.291Z,16.49
2023-09-08T02:14:11.320Z,16.37
2023-09-08T02:16:38.284Z,16.30
2023-09-08T02:19:05.374Z,16.25
2023-09-08T02:21:32.585Z,16.27
2023-09-08T02:24:01.201Z,16.17
2023-09-08T02:26:28.735Z,16.18
2023-09-08T02:28:55.846Z,16.28
2023-09-08T02:31:23.325Z,16.30
2023-09-08T02:33:50.476Z,16.29
2023-09-08T02:36:17.454Z,16.28
2023-09-08T02:38:44.423Z,16.09
2023-09-08T02:41:11.367Z,16.14
2023-09-08T02:43:38.381Z,16.02
2023-09-08T02:46:05.381Z,16.01
2023-09-08T02:48:32.651Z,15.97
2023-09-08T02:50:59.671Z,15.95
2023-09-08T02:53:29.614Z,15.94
2023-09-08T02:55:59.145Z,16.04
2023-09-08T02:58:28.894Z,16.23
2023-09-08T03:00:56.390Z,16.20
2023-09-08T03:03:23.502Z,16.20
2023-09-08T03:05:57.649Z,16.22
2023-09-08T03:08:24.738Z,16.16
2023-09-08T03:10:56.834Z,15.94
2023-09-08T03:13:23.823Z,16.03
2023-09-08T03:15:50.844Z,16.25
2023-09-08T03:18:18.833Z,16.25
2023-09-08T03:20:50.970Z,16.06
2023-09-08T03:23:18.356Z,15.84
2023-09-08T03:25:45.486Z,15.65
2023-09-08T03:28:13.208Z,15.54
2023-09-08T03:30:40.418Z,15.65
2023-09-08T03:33:07.548Z,15.95
2023-09-08T03:35:34.726Z,16.10
2023-09-08T03:38:01.718Z,16.12
2023-09-08T03:40:28.709Z,16.02
2023-09-08T03:42:55.806Z,16.04
2023-09-08T03:45:22.747Z,15.89
2023-09-08T03:47:49.900Z,15.78
2023-09-08T03:50:17.164Z,15.46
2023-09-08T03:52:44.126Z,15.37
2023-09-08T03:55:11.109Z,15.50
2023-09-08T03:57:38.174Z,15.37
2023-09-08T04:00:07.638Z,15.42
2023-09-08T04:02:34.683Z,15.50
2023-09-08T04:05:02.188Z,15.72
2023-09-08T04:07:29.342Z,15.73
2023-09-08T04:09:56.296Z,15.71
2023-09-08T04:12:23.428Z,15.79
2023-09-08T04:14:50.522Z,15.79
2023-09-08T04:17:17.474Z,15.73
2023-09-08T04:19:44.840Z,15.65
2023-09-08T04:22:11.797Z,15.56
2023-09-08T04:24:39.337Z,15.57
2023-09-08T04:27:06.332Z,15.45
2023-09-08T04:29:34.107Z,15.47
2023-09-08T04:32:01.213Z,15.39
2023-09-08T04:34:28.185Z,15.10
2023-09-08T04:36:55.157Z,15.22
2023-09-08T04:39:22.376Z,15.50
2023-09-08T04:41:49.978Z,15.44
2023-09-08T04:44:16.994Z,15.38
2023-09-08T04:46:44.270Z,15.29
2023-09-08T04:49:11.331Z,15.35
2023-09-08T04:51:38.352Z,15.39
2023-09-08T04:54:05.408Z,15.58
2023-09-08T04:56:32.364Z,15.68
2023-09-08T04:59:02.014Z,15.68
2023-09-08T05:01:31.139Z,15.64
2023-09-08T05:03:58.292Z,15.64
2023-09-08T05:06:25.860Z,15.67
2023-09-08T05:08:53.048Z,15.81
2023-09-08T05:11:20.618Z,15.91
2023-09-08T05:13:50.982Z,16.03
2023-09-08T05:16:20.070Z,15.97
2023-09-08T05:18:50.505Z,15.96
2023-09-08T05:21:20.335Z,15.94
2023-09-08T05:23:47.749Z,16.02
2023-09-08T05:26:15.476Z,16.12
2023-09-08T05:28:42.861Z,16.16
2023-09-08T05:31:11.183Z,16.27
2023-09-08T05:33:38.782Z,16.38
2023-09-08T05:36:05.965Z,16.52
2023-09-08T05:38:33.162Z,16.62
2023-09-08T05:41:00.424Z,16.74
2023-09-08T05:43:27.370Z,16.95
2023-09-08T05:45:54.301Z,16.99
2023-09-08T05:48:21.330Z,17.19
2023-09-08T05:50:48.669Z,17.24
2023-09-08T05:53:15.891Z,17.28
2023-09-08T05:55:42.831Z,17.32
2023-09-08T05:58:09.873Z,17.20
2023-09-08T06:00:36.808Z,17.26
2023-09-08T06:03:04.720Z,17.41
2023-09-08T06:05:31.781Z,17.55
2023-09-08T06:08:07.072Z,17.68
2023-09-08T06:10:34.526Z,17.85
2023-09-08T06:13:02.746Z,17.93
2023-09-08T06:15:30.518Z,18.15
2023-09-08T06:17:57.785Z,17.96
2023-09-08T06:20:26.005Z,18.16
2023-09-08T06:22:53.029Z,18.24
2023-09-08T06:25:20.004Z,18.37
2023-09-08T06:27:47.130Z,18.45
2023-09-08T06:30:18.978Z,18.64
2023-09-08T06:32:46.072Z,18.67
2023-09-08T06:35:13.256Z,18.79
2023-09-08T06:37:40.625Z,18.82
2023-09-08T06:40:08.207Z,18.83
2023-09-08T06:42:35.343Z,18.93
2023-09-08T06:45:03.012Z,19.09
2023-09-08T06:47:30.400Z,19.24
2023-09-08T06:49:57.606Z,19.36
2023-09-08T06:52:24.702Z,19.26
2023-09-08T06:54:51.759Z,19.37
2023-09-08T06:57:23.002Z,19.26
2023-09-08T06:59:49.977Z,19.51
2023-09-08T07:02:17.110Z,19.65
2023-09-08T07:04:44.230Z,19.65
2023-09-08T07:07:11.646Z,19.86
2023-09-08T07:09:39.259Z,19.89
2023-09-08T07:12:07.379Z,20.00
2023-09-08T07:14:34.456Z,20.07
2023-09-08T07:17:01.753Z,20.04
2023-09-08T07:19:28.968Z,19.99
2023-09-08T07:21:56.063Z,19.96
2023-09-08T07:24:23.141Z,20.15
2023-09-08T07:26:50.241Z,20.06
2023-09-08T07:29:17.348Z,20.26
2023-09-08T07:31:44.336Z,20.61
2023-09-08T07:34:11.385Z,20.71
2023-09-08T07:36:38.575Z,20.74
2023-09-08T07:39:05.787Z,20.85
2023-09-08T07:41:32.805Z,20.75
2023-09-08T07:43:59.829Z,20.78
2023-09-08T07:46:27.064Z,20.87
2023-09-08T07:48:54.224Z,20.69
2023-09-08T07:51:21.269Z,21.10
2023-09-08T07:53:48.299Z,21.12
2023-09-08T07:56:15.428Z,21.14
2023-09-08T07:58:42.592Z,21.36
2023-09-08T08:01:09.778Z,21.21
2023-09-08T08:03:37.183Z,21.31
2023-09-08T08:06:04.365Z,21.25
2023-09-08T08:08:31.693Z,21.53
2023-09-08T08:11:00.209Z,21.78
2023-09-08T08:13:27.213Z,21.82
2023-09-08T08:15:54.314Z,21.87
2023-09-08T08:18:21.654Z,22.10
2023-09-08T08:20:49.604Z,21.98
2023-09-08T08:23:16.604Z,22.02
2023-09-08T08:25:43.603Z,22.02
2023-09-08T08:28:10.697Z,21.73
2023-09-08T08:30:37.733Z,22.07
2023-09-08T08:33:05.524Z,22.05
2023-09-08T08:35:32.613Z,22.22
2023-09-08T08:38:01.468Z,22.50
2023-09-08T08:40:29.464Z,22.58
2023-09-08T08:43:00.051Z,23.05
2023-09-08T08:45:31.541Z,23.36
2023-09-08T08:47:59.686Z,23.31
2023-09-08T08:50:28.034Z,23.39
2023-09-08T08:52:55.258Z,23.27
2023-09-08T08:55:22.978Z,23.32
2023-09-08T08:57:50.772Z,23.68
2023-09-08T09:00:19.714Z,23.76
2023-09-08T09:05:19.534Z,23.72
2023-09-08T09:07:46.589Z,23.58
2023-09-08T09:10:15.093Z,23.64
2023-09-08T09:12:42.096Z,23.92
2023-09-08T09:15:09.828Z,23.78
2023-09-08T09:17:37.558Z,24.19
2023-09-08T09:20:21.202Z,24.00
2023-09-08T09:22:50.239Z,24.53
2023-09-08T09:25:30.173Z,25.13
2023-09-08T09:28:03.512Z,24.80
2023-09-08T09:30:49.739Z,24.72
2023-09-08T09:33:17.312Z,24.83
2023-09-08T09:35:53.092Z,25.01
2023-09-08T09:38:21.941Z,25.68
2023-09-08T09:40:50.297Z,25.75
2023-09-08T09:43:18.579Z,25.60
2023-09-08T09:45:46.332Z,25.81
2023-09-08T09:48:13.740Z,25.74
2023-09-08T09:50:42.850Z,26.11
2023-09-08T09:53:17.852Z,26.45
2023-09-08T09:55:46.420Z,27.02
2023-09-08T09:58:15.422Z,26.96
2023-09-08T10:00:42.960Z,26.92
2023-09-08T10:03:10.705Z,27.46
2023-09-08T10:05:38.645Z,27.88
2023-09-08T10:08:06.447Z,26.92
2023-09-08T10:10:35.736Z,27.08
2023-09-08T10:13:08.443Z,27.07
2023-09-08T10:15:36.888Z,27.17
2023-09-08T10:18:06.844Z,27.62
2023-09-08T10:20:35.869Z,27.32
2023-09-08T10:23:07.796Z,27.40
2023-09-08T10:25:45.851Z,27.30
2023-09-08T10:28:14.385Z,27.73
2023-09-08T10:30:42.541Z,28.22
2023-09-08T10:33:11.186Z,28.62
2023-09-08T10:35:39.227Z,28.68
2023-09-08T10:38:25.590Z,28.14
2023-09-08T10:40:53.886Z,28.05
2023-09-08T10:43:21.416Z,27.99
2023-09-08T10:45:48.930Z,27.93
2023-09-08T10:48:17.056Z,28.29
2023-09-08T10:50:44.575Z,28.64
2023-09-08T10:53:16.882Z,28.77
2023-09-08T10:56:06.887Z,29.26
2023-09-08T10:58:44.667Z,29.57
2023-09-08T11:01:27.771Z,29.41
2023-09-08T11:03:55.408Z,29.47
2023-09-08T11:06:24.449Z,29.34
2023-09-08T11:08:57.217Z,29.57
2023-09-08T11:11:24.556Z,29.35
2023-09-08T11:13:51.762Z,29.19
2023-09-08T11:16:27.726Z,28.85
2023-09-08T11:18:54.867Z,28.85
2023-09-08T11:21:22.303Z,28.97
2023-09-08T11:23:49.508Z,29.03
2023-09-08T11:26:17.846Z,29.60
2023-09-08T11:28:45.263Z,29.63
2023-09-08T11:31:13.930Z,29.64
2023-09-08T11:33:41.387Z,29.68
2023-09-08T11:36:16.381Z,29.57
2023-09-08T11:38:46.302Z,29.27
2023-09-08T11:41:13.791Z,29.34
2023-09-08T11:43:41.104Z,29.60
2023-09-08T11:46:08.621Z,29.73
2023-09-08T11:48:36.645Z,29.83
2023-09-08T11:51:04.106Z,29.79
2023-09-08T11:53:34.642Z,29.92
2023-09-08T11:56:01.875Z,30.12
2023-09-08T11:58:29.263Z,30.39
2023-09-08T12:00:56.628Z,30.42
2023-09-08T12:03:23.739Z,30.50
2023-09-08T12:05:54.342Z,30.62
2023-09-08T12:08:21.510Z,30.20
2023-09-08T12:10:48.477Z,29.93
2023-09-08T12:13:26.222Z,29.81
2023-09-08T12:15:54.006Z,30.07
2023-09-08T12:18:38.558Z,29.70
2023-09-08T12:21:06.853Z,30.09
2023-09-08T12:23:33.781Z,30.03
2023-09-08T12:26:00.818Z,30.61
2023-09-08T12:28:32.941Z,30.43
2023-09-08T12:30:59.983Z,29.60
2023-09-08T12:33:28.034Z,30.00
2023-09-08T12:35:55.006Z,30.43
2023-09-08T12:38:22.216Z,30.72
2023-09-08T12:40:49.676Z,30.72
2023-09-08T12:43:26.963Z,30.82
2023-09-08T12:45:57.363Z,30.54
2023-09-08T12:48:25.267Z,30.50
2023-09-08T12:50:52.215Z,30.35
2023-09-08T12:53:19.797Z,30.53
2023-09-08T12:55:48.015Z,30.21
2023-09-08T12:58:15.357Z,30.37
2023-09-08T13:00:42.370Z,30.55
2023-09-08T13:03:09.699Z,30.64
2023-09-08T13:05:39.592Z,30.60
2023-09-08T13:08:06.875Z,30.98
2023-09-08T13:10:34.487Z,30.69
2023-09-08T13:13:02.167Z,30.70
2023-09-08T13:15:29.522Z,30.63
2023-09-08T13:17:57.142Z,30.73
2023-09-08T13:20:24.240Z,30.29
2023-09-08T13:22:51.269Z,30.35
2023-09-08T13:25:18.312Z,30.59
2023-09-08T13:27:45.379Z,30.68
2023-09-08T13:30:16.910Z,30.56
2023-09-08T13:32:45.782Z,30.55
2023-09-08T13:35:13.160Z,30.42
2023-09-08T13:37:40.571Z,30.36
2023-09-08T13:40:09.304Z,30.33
2023-09-08T13:42:37.184Z,30.33
2023-09-08T13:45:05.627Z,30.31
2023-09-08T13:47:33.440Z,30.28
2023-09-08T13:50:02.788Z,30.34
2023-09-08T13:52:33.356Z,30.40
2023-09-08T13:57:41.488Z,30.21
2023-09-08T14:00:15.608Z,30.13
2023-09-08T14:02:50.649Z,30.02
2023-09-08T14:05:20.901Z,30.21
2023-09-08T14:07:58.912Z,30.34
2023-09-08T14:13:04.088Z,30.70
2023-09-08T14:15:31.140Z,30.62
2023-09-08T14:17:58.172Z,30.52
2023-09-08T14:20:25.187Z,30.33
2023-09-08T14:22:52.172Z,30.35
2023-09-08T14:25:19.212Z,30.53
2023-09-08T14:27:46.142Z,30.49
2023-09-08T14:30:13.321Z,30.40
2023-09-08T14:32:40.728Z,30.48
2023-09-08T14:35:08.141Z,30.54
2023-09-08T14:37:35.160Z,30.63
2023-09-08T14:40:02.260Z,30.91
2023-09-08T14:42:30.304Z,30.57
2023-09-08T14:44:57.240Z,30.41
2023-09-08T14:47:24.506Z,30.53
2023-09-08T14:49:51.479Z,30.47
2023-09-08T14:52:21.656Z,30.68
2023-09-08T14:54:48.679Z,30.44
2023-09-08T14:57:15.699Z,30.52
2023-09-08T14:59:42.686Z,30.44
2023-09-08T15:02:10.901Z,30.44
2023-09-08T15:04:38.218Z,30.38
2023-09-08T15:07:05.592Z,30.19
2023-09-08T15:09:32.708Z,30.47
2023-09-08T15:11:59.648Z,30.31
2023-09-08T15:14:26.632Z,30.32
2023-09-08T15:16:53.644Z,30.43
2023-09-08T15:19:20.863Z,30.40
2023-09-08T15:21:47.799Z,30.24
2023-09-08T15:24:14.737Z,30.09
2023-09-08T15:26:41.703Z,30.13
2023-09-08T15:29:09.428Z,30.22
2023-09-08T15:31:36.653Z,30.42
2023-09-08T15:34:03.726Z,30.48
2023-09-08T15:36:30.852Z,30.36
2023-09-08T15:38:57.773Z,30.50
2023-09-08T15:41:24.761Z,30.53
2023-09-08T15:43:52.631Z,30.37
2023-09-08T15:46:20.723Z,30.24
2023-09-08T15:48:49.100Z,30.19
2023-09-08T15:51:16.527Z,30.01
2023-09-08T15:53:43.537Z,30.13
2023-09-08T15:56:11.082Z,30.13
2023-09-08T15:58:38.348Z,30.32
2023-09-08T16:01:07.985Z,30.41
2023-09-08T16:03:36.655Z,30.29
2023-09-08T16:06:04.187Z,30.23
2023-09-08T16:08:31.250Z,30.13
2023-09-08T16:11:00.612Z,30.18
2023-09-08T16:13:27.591Z,29.99
2023-09-08T16:15:54.546Z,29.79
2023-09-08T16:18:21.513Z,29.69
2023-09-08T16:20:49.310Z,29.83
2023-09-08T16:23:16.315Z,29.71
2023-09-08T16:25:43.320Z,29.46
2023-09-08T16:28:11.158Z,29.53
2023-09-08T16:30:38.124Z,29.35
2023-09-08T16:33:05.427Z,29.41
2023-09-08T16:35:32.505Z,29.61
2023-09-08T16:37:59.559Z,29.45
2023-09-08T16:40:26.983Z,29.37
2023-09-08T16:42:54.016Z,29.26
2023-09-08T16:45:21.051Z,29.26
2023-09-08T16:47:48.026Z,29.21
2023-09-08T16:50:15.010Z,29.23
2023-09-08T16:52:42.050Z,29.19
2023-09-08T16:55:12.459Z,29.05
2023-09-08T16:57:40.430Z,28.97
2023-09-08T17:00:09.220Z,29.05
2023-09-08T17:02:39.438Z,28.92
2023-09-08T17:05:09.216Z,28.92
2023-09-08T17:07:36.350Z,28.70
2023-09-08T17:10:04.728Z,28.56
2023-09-08T17:12:32.667Z,28.65
2023-09-08T17:14:59.714Z,28.52
2023-09-08T17:17:26.816Z,28.44
2023-09-08T17:19:53.859Z,28.43
2023-09-08T17:22:20.976Z,28.37
2023-09-08T17:24:48.026Z,28.13
2023-09-08T17:27:15.053Z,28.08
2023-09-08T17:29:42.018Z,28.11
2023-09-08T17:32:09.978Z,28.09
2023-09-08T17:34:36.911Z,27.91
2023-09-08T17:37:04.501Z,27.70
2023-09-08T17:39:31.765Z,27.56
2023-09-08T17:41:58.848Z,27.60
2023-09-08T17:44:26.085Z,27.56
2023-09-08T17:46:53.331Z,27.27
2023-09-08T17:49:20.369Z,27.19
2023-09-08T17:51:47.443Z,27.11
2023-09-08T17:54:14.489Z,26.99
2023-09-08T17:56:41.654Z,26.88
2023-09-08T17:59:08.885Z,26.77
2023-09-08T18:01:38.147Z,26.61
2023-09-08T18:04:07.200Z,26.48
2023-09-08T18:06:34.348Z,26.37
2023-09-08T18:09:02.014Z,26.04
2023-09-08T18:11:29.363Z,25.99
2023-09-08T18:13:57.111Z,25.73
2023-09-08T18:16:24.480Z,25.75
2023-09-08T18:18:51.577Z,25.72
2023-09-08T18:21:18.673Z,25.68
2023-09-08T18:23:47.531Z,25.57
2023-09-08T18:26:17.353Z,25.50
2023-09-08T18:28:44.687Z,25.34
2023-09-08T18:31:12.505Z,25.27
2023-09-08T18:33:39.885Z,25.17
2023-09-08T18:36:07.791Z,25.16
2023-09-08T18:38:35.291Z,25.20
2023-09-08T18:41:02.530Z,25.20
2023-09-08T18:43:29.709Z,25.09
2023-09-08T18:45:56.727Z,24.92
2023-09-08T18:48:24.403Z,24.74
2023-09-08T18:50:51.644Z,24.52
2023-09-08T18:53:18.695Z,24.32
2023-09-08T18:55:46.004Z,24.29
2023-09-08T18:58:14.465Z,24.20
2023-09-08T19:00:45.994Z,24.07
2023-09-08T19:03:13.753Z,23.95
2023-09-08T19:05:41.884Z,23.86
2023-09-08T19:08:09.740Z,23.88
2023-09-08T19:10:37.318Z,23.96
2023-09-08T19:13:05.521Z,24.01
2023-09-08T19:15:32.848Z,24.01
2023-09-08T19:18:00.061Z,24.12
2023-09-08T19:20:27.191Z,24.21
2023-09-08T19:22:54.890Z,24.20
2023-09-08T19:25:22.578Z,24.01
2023-09-08T19:27:50.759Z,23.93
2023-09-08T19:30:18.441Z,23.77
2023-09-08T19:32:45.893Z,23.68
2023-09-08T19:35:13.118Z,23.66
2023-09-08T19:37:40.352Z,23.50
2023-09-08T19:40:08.613Z,23.66
2023-09-08T19:42:35.672Z,23.60
2023-09-08T19:45:02.852Z,23.53
2023-09-08T19:47:30.041Z,23.46
2023-09-08T19:49:57.241Z,23.45
2023-09-08T19:52:24.285Z,23.54
2023-09-08T19:54:51.323Z,23.26
2023-09-08T19:57:18.405Z,23.29
2023-09-08T19:59:46.441Z,23.17
2023-09-08T20:02:13.427Z,23.16
2023-09-08T20:04:40.742Z,23.00
2023-09-08T20:07:08.025Z,22.84
2023-09-08T20:09:35.048Z,22.72
2023-09-08T20:12:02.443Z,22.73
2023-09-08T20:14:30.683Z,22.73
2023-09-08T20:16:57.683Z,22.69
2023-09-08T20:19:24.566Z,22.54
2023-09-08T20:21:51.607Z,22.46
2023-09-08T20:24:19.408Z,22.42
2023-09-08T20:26:46.316Z,22.26
2023-09-08T20:29:13.750Z,22.26
2023-09-08T20:31:40.872Z,22.21
2023-09-08T20:34:08.201Z,22.26
2023-09-08T20:36:35.201Z,22.28
2023-09-08T20:39:02.191Z,22.45
2023-09-08T20:41:30.429Z,22.54
2023-09-08T20:43:57.530Z,22.48
2023-09-08T20:46:24.584Z,22.46
2023-09-08T20:48:51.626Z,22.32
2023-09-08T20:51:24.054Z,22.12
2023-09-08T20:53:51.076Z,22.19
2023-09-08T20:56:18.082Z,22.08
2023-09-08T20:58:45.092Z,22.12
2023-09-08T21:01:12.226Z,22.05
2023-09-08T21:03:40.297Z,21.93
2023-09-08T21:06:08.435Z,21.90
2023-09-08T21:08:35.385Z,21.73
2023-09-08T21:11:03.538Z,21.52
2023-09-08T21:13:30.770Z,21.30
2023-09-08T21:15:57.804Z,21.15
2023-09-08T21:18:24.827Z,21.20
2023-09-08T21:20:51.889Z,21.28
2023-09-08T21:23:19.291Z,21.33
2023-09-08T21:25:46.293Z,21.38
2023-09-08T21:28:13.357Z,21.26
2023-09-08T21:30:40.753Z,21.33
2023-09-08T21:33:07.859Z,21.16
2023-09-08T21:35:35.040Z,20.84
2023-09-08T21:38:02.060Z,20.74
2023-09-08T21:40:29.776Z,20.68
2023-09-08T21:42:56.816Z,20.44
2023-09-08T21:45:23.929Z,20.35
2023-09-08T21:47:51.664Z,20.32
2023-09-08T21:50:19.219Z,20.19
2023-09-08T21:52:46.510Z,20.35
2023-09-08T21:55:14.103Z,20.19
2023-09-08T21:57:41.340Z,20.14
2023-09-08T22:00:12.619Z,19.91
2023-09-08T22:02:39.831Z,19.91
2023-09-08T22:05:07.464Z,19.81
2023-09-08T22:07:34.643Z,19.93
2023-09-08T22:10:01.727Z,19.95
2023-09-08T22:12:29.258Z,20.10
2023-09-08T22:14:56.767Z,20.11
2023-09-08T22:17:23.911Z,20.21
2023-09-08T22:19:54.473Z,20.29
2023-09-08T22:22:21.541Z,20.28
2023-09-08T22:24:48.541Z,20.31
2023-09-08T22:27:15.773Z,20.26
2023-09-08T22:29:42.774Z,20.10
2023-09-08T22:32:10.066Z,20.01
2023-09-08T22:34:37.218Z,19.88
2023-09-08T22:37:05.027Z,19.47
2023-09-08T22:39:33.611Z,19.37
2023-09-08T22:42:00.591Z,19.32
2023-09-08T22:44:27.640Z,19.22
2023-09-08T22:46:54.694Z,19.28
2023-09-08T22:49:21.644Z,19.48
2023-09-08T22:51:48.720Z,19.18
2023-09-08T22:54:15.781Z,19.03
2023-09-08T22:56:43.009Z,19.05
2023-09-08T22:59:10.703Z,18.87
2023-09-08T23:01:38.106Z,18.93
2023-09-08T23:04:06.201Z,18.81
2023-09-08T23:06:33.365Z,18.74
2023-09-08T23:09:00.376Z,18.74
2023-09-08T23:11:29.626Z,18.40
2023-09-08T23:13:56.725Z,18.36
2023-09-08T23:16:24.327Z,18.22
2023-09-08T23:18:51.324Z,18.32
2023-09-08T23:21:18.317Z,18.45
2023-09-08T23:23:45.252Z,18.56
2023-09-08T23:26:12.165Z,18.74
2023-09-08T23:28:39.116Z,18.84
2023-09-08T23:31:06.125Z,18.93
2023-09-08T23:33:33.155Z,19.02
2023-09-08T23:36:00.277Z,18.99
2023-09-08T23:38:27.317Z,18.90
2023-09-08T23:40:54.229Z,18.82
2023-09-08T23:43:21.249Z,18.67
2023-09-08T23:45:48.353Z,18.62
2023-09-08T23:48:15.671Z,18.68
2023-09-08T23:50:58.223Z,18.84
2023-09-08T23:53:29.680Z,18.76
2023-09-08T23:55:57.060Z,18.49
2023-09-08T23:58:24.136Z,18.37
